sensor_id;sensor_type;location;lat;lon;timestamp;temperature;humidity
74224;SHT31;62585;49.706;18.216;2023-08-07T00:00:23;14.32;97.21
74224;SHT31;62585;49.706;18.216;2023-08-07T00:03:09;14.29;97.46
74224;SHT31;62585;49.706;18.216;2023-08-07T00:05:36;14.34;97.04
74224;SHT31;62585;49.706;18.216;2023-08-07T00:08:02;14.37;97.21
74224;SHT31;62585;49.706;18.216;2023-08-07T00:10:28;14.32;97.18
74224;SHT31;62585;49.706;18.216;2023-08-07T00:12:54;14.37;96.91
74224;SHT31;62585;49.706;18.216;2023-08-07T00:15:19;14.40;96.79
74224;SHT31;62585;49.706;18.216;2023-08-07T00:17:45;14.36;97.00
74224;SHT31;62585;49.706;18.216;2023-08-07T00:20:11;14.38;96.78
74224;SHT31;62585;49.706;18.216;2023-08-07T00:22:37;14.34;96.85
74224;SHT31;62585;49.706;18.216;2023-08-07T00:25:03;14.37;96.51
74224;SHT31;62585;49.706;18.216;2023-08-07T00:27:29;14.38;96.47
74224;SHT31;62585;49.706;18.216;2023-08-07T00:29:54;14.37;96.62
74224;SHT31;62585;49.706;18.216;2023-08-07T00:32:20;14.37;96.69
74224;SHT31;62585;49.706;18.216;2023-08-07T00:34:46;14.34;96.70
74224;SHT31;62585;49.706;18.216;2023-08-07T00:37:12;14.32;96.89
74224;SHT31;62585;49.706;18.216;2023-08-07T00:39:37;14.37;96.62
74224;SHT31;62585;49.706;18.216;2023-08-07T00:42:04;14.37;96.34
74224;SHT31;62585;49.706;18.216;2023-08-07T00:44:29;14.34;96.60
74224;SHT31;62585;49.706;18.216;2023-08-07T00:46:55;14.38;96.07
74224;SHT31;62585;49.706;18.216;2023-08-07T00:49:21;14.33;96.30
74224;SHT31;62585;49.706;18.216;2023-08-07T00:51:47;14.32;96.40
74224;SHT31;62585;49.706;18.216;2023-08-07T00:54:15;14.32;96.23
74224;SHT31;62585;49.706;18.216;2023-08-07T00:56:43;14.29;96.58
74224;SHT31;62585;49.706;18.216;2023-08-07T00:59:09;14.26;96.62
74224;SHT31;62585;49.706;18.216;2023-08-07T01:01:36;14.27;96.46
74224;SHT31;62585;49.706;18.216;2023-08-07T01:04:01;14.24;96.36
74224;SHT31;62585;49.706;18.216;2023-08-07T01:06:27;14.24;96.54
74224;SHT31;62585;49.706;18.216;2023-08-07T01:08:53;14.24;96.33
74224;SHT31;62585;49.706;18.216;2023-08-07T01:11:43;14.27;95.98
74224;SHT31;62585;49.706;18.216;2023-08-07T01:14:30;14.24;96.16
74224;SHT31;62585;49.706;18.216;2023-08-07T01:17:13;14.23;95.98
74224;SHT31;62585;49.706;18.216;2023-08-07T01:19:40;14.17;96.55
74224;SHT31;62585;49.706;18.216;2023-08-07T01:22:15;14.19;96.24
74224;SHT31;62585;49.706;18.216;2023-08-07T01:24:43;14.10;96.48
74224;SHT31;62585;49.706;18.216;2023-08-07T01:29:41;14.17;95.86
74224;SHT31;62585;49.706;18.216;2023-08-07T01:32:11;14.10;96.21
74224;SHT31;62585;49.706;18.216;2023-08-07T01:34:41;14.06;96.76
74224;SHT31;62585;49.706;18.216;2023-08-07T01:37:08;14.13;96.02
74224;SHT31;62585;49.706;18.216;2023-08-07T01:39:36;14.08;96.41
74224;SHT31;62585;49.706;18.216;2023-08-07T01:42:03;14.12;96.29
74224;SHT31;62585;49.706;18.216;2023-08-07T01:44:30;14.12;95.83
74224;SHT31;62585;49.706;18.216;2023-08-07T01:46:56;14.06;96.22
74224;SHT31;62585;49.706;18.216;2023-08-07T01:49:22;14.05;96.17
74224;SHT31;62585;49.706;18.216;2023-08-07T01:51:48;14.09;95.68
74224;SHT31;62585;49.706;18.216;2023-08-07T01:54:13;14.02;96.27
74224;SHT31;62585;49.706;18.216;2023-08-07T01:56:39;14.06;95.52
74224;SHT31;62585;49.706;18.216;2023-08-07T01:59:05;14.02;95.73
74224;SHT31;62585;49.706;18.216;2023-08-07T02:01:31;13.93;96.59
74224;SHT31;62585;49.706;18.216;2023-08-07T02:03:56;13.93;96.38
74224;SHT31;62585;49.706;18.216;2023-08-07T02:06:22;13.90;96.54
74224;SHT31;62585;49.706;18.216;2023-08-07T02:08:47;13.92;96.46
74224;SHT31;62585;49.706;18.216;2023-08-07T02:13:48;13.90;96.35
74224;SHT31;62585;49.706;18.216;2023-08-07T02:16:14;13.87;96.31
74224;SHT31;62585;49.706;18.216;2023-08-07T02:18:40;13.87;96.15
74224;SHT31;62585;49.706;18.216;2023-08-07T02:21:06;13.86;96.24
74224;SHT31;62585;49.706;18.216;2023-08-07T02:23:31;13.82;96.23
74224;SHT31;62585;49.706;18.216;2023-08-07T02:25:57;13.83;96.17
74224;SHT31;62585;49.706;18.216;2023-08-07T02:28:23;13.79;96.07
74224;SHT31;62585;49.706;18.216;2023-08-07T02:30:49;13.83;95.76
74224;SHT31;62585;49.706;18.216;2023-08-07T02:33:16;13.75;95.95
74224;SHT31;62585;49.706;18.216;2023-08-07T02:35:42;13.74;95.86
74224;SHT31;62585;49.706;18.216;2023-08-07T02:38:08;13.75;95.58
74224;SHT31;62585;49.706;18.216;2023-08-07T02:40:34;13.71;95.70
74224;SHT31;62585;49.706;18.216;2023-08-07T02:42:59;13.66;95.68
74224;SHT31;62585;49.706;18.216;2023-08-07T02:45:25;13.65;95.38
74224;SHT31;62585;49.706;18.216;2023-08-07T02:47:51;13.59;95.59
74224;SHT31;62585;49.706;18.216;2023-08-07T02:50:17;13.55;95.59
74224;SHT31;62585;49.706;18.216;2023-08-07T02:52:42;13.57;95.25
74224;SHT31;62585;49.706;18.216;2023-08-07T02:55:08;13.55;94.96
74224;SHT31;62585;49.706;18.216;2023-08-07T02:57:34;13.53;95.16
74224;SHT31;62585;49.706;18.216;2023-08-07T03:00:00;13.51;95.41
74224;SHT31;62585;49.706;18.216;2023-08-07T03:02:25;13.53;95.04
74224;SHT31;62585;49.706;18.216;2023-08-07T03:04:51;13.47;95.38
74224;SHT31;62585;49.706;18.216;2023-08-07T03:07:17;13.47;95.42
74224;SHT31;62585;49.706;18.216;2023-08-07T03:09:45;13.48;95.20
74224;SHT31;62585;49.706;18.216;2023-08-07T03:12:12;13.48;95.67
74224;SHT31;62585;49.706;18.216;2023-08-07T03:14:38;13.41;95.55
74224;SHT31;62585;49.706;18.216;2023-08-07T03:17:04;13.41;95.45
74224;SHT31;62585;49.706;18.216;2023-08-07T03:19:30;13.37;95.34
74224;SHT31;62585;49.706;18.216;2023-08-07T03:21:55;13.34;95.48
74224;SHT31;62585;49.706;18.216;2023-08-07T03:24:21;13.31;95.62
74224;SHT31;62585;49.706;18.216;2023-08-07T03:26:47;13.30;95.93
74224;SHT31;62585;49.706;18.216;2023-08-07T03:29:14;13.31;95.85
74224;SHT31;62585;49.706;18.216;2023-08-07T03:31:40;13.26;95.81
74224;SHT31;62585;49.706;18.216;2023-08-07T03:34:06;13.30;95.20
74224;SHT31;62585;49.706;18.216;2023-08-07T03:36:31;13.31;95.58
74224;SHT31;62585;49.706;18.216;2023-08-07T03:38:57;13.28;95.42
74224;SHT31;62585;49.706;18.216;2023-08-07T03:41:23;13.23;95.81
74224;SHT31;62585;49.706;18.216;2023-08-07T03:43:49;13.30;95.36
74224;SHT31;62585;49.706;18.216;2023-08-07T03:46:14;13.23;95.98
74224;SHT31;62585;49.706;18.216;2023-08-07T03:48:40;13.17;96.01
74224;SHT31;62585;49.706;18.216;2023-08-07T03:51:07;13.20;95.79
74224;SHT31;62585;49.706;18.216;2023-08-07T03:53:37;13.17;96.36
74224;SHT31;62585;49.706;18.216;2023-08-07T03:56:02;13.18;95.96
74224;SHT31;62585;49.706;18.216;2023-08-07T03:58:28;13.18;96.03
74224;SHT31;62585;49.706;18.216;2023-08-07T04:00:55;13.18;95.31
74224;SHT31;62585;49.706;18.216;2023-08-07T04:03:21;13.13;96.09
74224;SHT31;62585;49.706;18.216;2023-08-07T04:05:47;13.14;95.32
74224;SHT31;62585;49.706;18.216;2023-08-07T04:08:13;13.16;95.72
74224;SHT31;62585;49.706;18.216;2023-08-07T04:10:38;13.14;95.96
74224;SHT31;62585;49.706;18.216;2023-08-07T04:13:04;13.11;96.00
74224;SHT31;62585;49.706;18.216;2023-08-07T04:15:30;13.07;95.89
74224;SHT31;62585;49.706;18.216;2023-08-07T04:17:55;13.11;96.07
74224;SHT31;62585;49.706;18.216;2023-08-07T04:20:21;13.11;95.73
74224;SHT31;62585;49.706;18.216;2023-08-07T04:22:47;13.09;95.44
74224;SHT31;62585;49.706;18.216;2023-08-07T04:25:13;13.10;96.07
74224;SHT31;62585;49.706;18.216;2023-08-07T04:27:39;13.11;95.80
74224;SHT31;62585;49.706;18.216;2023-08-07T04:30:05;13.07;96.01
74224;SHT31;62585;49.706;18.216;2023-08-07T04:32:31;13.13;95.91
74224;SHT31;62585;49.706;18.216;2023-08-07T04:34:57;13.14;95.80
74224;SHT31;62585;49.706;18.216;2023-08-07T04:37:23;13.27;95.26
74224;SHT31;62585;49.706;18.216;2023-08-07T04:39:49;13.24;95.66
74224;SHT31;62585;49.706;18.216;2023-08-07T04:42:15;13.27;95.52
74224;SHT31;62585;49.706;18.216;2023-08-07T04:44:40;13.31;94.91
74224;SHT31;62585;49.706;18.216;2023-08-07T04:47:06;13.27;95.42
74224;SHT31;62585;49.706;18.216;2023-08-07T04:49:32;13.34;95.46
74224;SHT31;62585;49.706;18.216;2023-08-07T04:51:57;13.36;95.05
74224;SHT31;62585;49.706;18.216;2023-08-07T04:54:23;13.33;94.89
74224;SHT31;62585;49.706;18.216;2023-08-07T04:56:49;13.36;95.23
74224;SHT31;62585;49.706;18.216;2023-08-07T04:59:14;13.36;95.10
74224;SHT31;62585;49.706;18.216;2023-08-07T05:01:40;13.31;95.04
74224;SHT31;62585;49.706;18.216;2023-08-07T05:04:06;13.30;95.69
74224;SHT31;62585;49.706;18.216;2023-08-07T05:06:32;13.30;94.36
74224;SHT31;62585;49.706;18.216;2023-08-07T05:08:58;13.36;95.18
74224;SHT31;62585;49.706;18.216;2023-08-07T05:11:24;13.30;95.48
74224;SHT31;62585;49.706;18.216;2023-08-07T05:13:49;13.28;95.45
74224;SHT31;62585;49.706;18.216;2023-08-07T05:16:15;13.30;95.41
74224;SHT31;62585;49.706;18.216;2023-08-07T05:18:44;13.30;95.06
74224;SHT31;62585;49.706;18.216;2023-08-07T05:21:10;13.30;95.17
74224;SHT31;62585;49.706;18.216;2023-08-07T05:23:35;13.30;94.97
74224;SHT31;62585;49.706;18.216;2023-08-07T05:26:01;13.28;95.61
74224;SHT31;62585;49.706;18.216;2023-08-07T05:28:27;13.44;94.51
74224;SHT31;62585;49.706;18.216;2023-08-07T05:30:53;13.51;94.56
74224;SHT31;62585;49.706;18.216;2023-08-07T05:33:19;13.53;93.31
74224;SHT31;62585;49.706;18.216;2023-08-07T05:35:44;13.48;94.23
74224;SHT31;62585;49.706;18.216;2023-08-07T05:38:10;13.55;93.60
74224;SHT31;62585;49.706;18.216;2023-08-07T05:40:36;13.48;94.69
74224;SHT31;62585;49.706;18.216;2023-08-07T05:43:02;13.59;94.10
74224;SHT31;62585;49.706;18.216;2023-08-07T05:45:28;13.66;93.37
74224;SHT31;62585;49.706;18.216;2023-08-07T05:47:54;13.68;93.63
74224;SHT31;62585;49.706;18.216;2023-08-07T05:50:19;13.72;93.93
74224;SHT31;62585;49.706;18.216;2023-08-07T05:52:45;13.78;92.69
74224;SHT31;62585;49.706;18.216;2023-08-07T05:55:11;13.68;92.90
74224;SHT31;62585;49.706;18.216;2023-08-07T05:57:37;13.66;92.94
74224;SHT31;62585;49.706;18.216;2023-08-07T06:00:03;13.61;93.33
74224;SHT31;62585;49.706;18.216;2023-08-07T06:02:29;13.57;93.59
74224;SHT31;62585;49.706;18.216;2023-08-07T06:04:55;13.59;93.13
74224;SHT31;62585;49.706;18.216;2023-08-07T06:07:21;13.72;92.14
74224;SHT31;62585;49.706;18.216;2023-08-07T06:09:46;13.53;92.99
74224;SHT31;62585;49.706;18.216;2023-08-07T06:12:15;13.72;92.63
74224;SHT31;62585;49.706;18.216;2023-08-07T06:14:41;13.74;92.47
74224;SHT31;62585;49.706;18.216;2023-08-07T06:17:09;13.69;92.67
74224;SHT31;62585;49.706;18.216;2023-08-07T06:19:35;13.65;93.03
74224;SHT31;62585;49.706;18.216;2023-08-07T06:22:01;13.75;92.57
74224;SHT31;62585;49.706;18.216;2023-08-07T06:24:27;13.62;93.08
74224;SHT31;62585;49.706;18.216;2023-08-07T06:26:52;13.65;92.00
74224;SHT31;62585;49.706;18.216;2023-08-07T06:29:18;13.65;92.55
74224;SHT31;62585;49.706;18.216;2023-08-07T06:31:44;13.71;92.30
74224;SHT31;62585;49.706;18.216;2023-08-07T06:34:10;13.68;92.55
74224;SHT31;62585;49.706;18.216;2023-08-07T06:36:35;13.65;92.44
74224;SHT31;62585;49.706;18.216;2023-08-07T06:39:01;13.62;92.80
74224;SHT31;62585;49.706;18.216;2023-08-07T06:41:29;13.61;92.22
74224;SHT31;62585;49.706;18.216;2023-08-07T06:43:55;13.55;93.26
74224;SHT31;62585;49.706;18.216;2023-08-07T06:46:20;13.61;92.36
74224;SHT31;62585;49.706;18.216;2023-08-07T06:48:50;13.53;93.32
74224;SHT31;62585;49.706;18.216;2023-08-07T06:51:15;13.48;94.35
74224;SHT31;62585;49.706;18.216;2023-08-07T06:53:42;13.44;93.93
74224;SHT31;62585;49.706;18.216;2023-08-07T06:56:08;13.62;93.88
74224;SHT31;62585;49.706;18.216;2023-08-07T06:58:33;13.71;93.37
74224;SHT31;62585;49.706;18.216;2023-08-07T07:00:59;13.51;93.68
74224;SHT31;62585;49.706;18.216;2023-08-07T07:03:25;13.71;93.76
74224;SHT31;62585;49.706;18.216;2023-08-07T07:05:50;13.58;94.33
74224;SHT31;62585;49.706;18.216;2023-08-07T07:08:16;13.75;93.16
74224;SHT31;62585;49.706;18.216;2023-08-07T07:10:42;13.76;93.39
74224;SHT31;62585;49.706;18.216;2023-08-07T07:13:08;13.81;93.79
74224;SHT31;62585;49.706;18.216;2023-08-07T07:15:34;13.82;93.29
74224;SHT31;62585;49.706;18.216;2023-08-07T07:18:01;13.89;94.17
74224;SHT31;62585;49.706;18.216;2023-08-07T07:20:27;14.01;93.28
74224;SHT31;62585;49.706;18.216;2023-08-07T07:22:53;13.83;93.60
74224;SHT31;62585;49.706;18.216;2023-08-07T07:25:18;13.76;93.37
74224;SHT31;62585;49.706;18.216;2023-08-07T07:27:44;13.78;93.27
74224;SHT31;62585;49.706;18.216;2023-08-07T07:30:10;13.85;93.88
74224;SHT31;62585;49.706;18.216;2023-08-07T07:32:36;13.75;93.67
74224;SHT31;62585;49.706;18.216;2023-08-07T07:35:02;13.79;93.78
74224;SHT31;62585;49.706;18.216;2023-08-07T07:37:28;13.75;92.77
74224;SHT31;62585;49.706;18.216;2023-08-07T07:39:55;13.92;93.15
74224;SHT31;62585;49.706;18.216;2023-08-07T07:42:21;13.76;92.98
74224;SHT31;62585;49.706;18.216;2023-08-07T07:44:46;13.81;93.42
74224;SHT31;62585;49.706;18.216;2023-08-07T07:47:12;13.72;94.06
74224;SHT31;62585;49.706;18.216;2023-08-07T07:49:38;13.68;93.33
74224;SHT31;62585;49.706;18.216;2023-08-07T07:52:04;13.62;94.07
74224;SHT31;62585;49.706;18.216;2023-08-07T07:54:30;13.72;93.84
74224;SHT31;62585;49.706;18.216;2023-08-07T07:56:56;13.75;93.21
74224;SHT31;62585;49.706;18.216;2023-08-07T07:59:22;13.79;92.99
74224;SHT31;62585;49.706;18.216;2023-08-07T08:01:48;13.85;93.60
74224;SHT31;62585;49.706;18.216;2023-08-07T08:04:14;13.89;92.99
74224;SHT31;62585;49.706;18.216;2023-08-07T08:06:40;13.78;93.36
74224;SHT31;62585;49.706;18.216;2023-08-07T08:09:06;13.83;93.79
74224;SHT31;62585;49.706;18.216;2023-08-07T08:11:34;13.78;93.67
74224;SHT31;62585;49.706;18.216;2023-08-07T08:14:00;13.83;94.21
74224;SHT31;62585;49.706;18.216;2023-08-07T08:16:26;13.78;93.13
74224;SHT31;62585;49.706;18.216;2023-08-07T08:18:51;13.72;93.62
74224;SHT31;62585;49.706;18.216;2023-08-07T08:21:17;13.71;94.40
74224;SHT31;62585;49.706;18.216;2023-08-07T08:23:43;13.68;93.42
74224;SHT31;62585;49.706;18.216;2023-08-07T08:26:09;13.62;94.32
74224;SHT31;62585;49.706;18.216;2023-08-07T08:28:34;13.61;93.84
74224;SHT31;62585;49.706;18.216;2023-08-07T08:31:00;13.64;94.49
74224;SHT31;62585;49.706;18.216;2023-08-07T08:33:26;13.58;94.84
74224;SHT31;62585;49.706;18.216;2023-08-07T08:35:52;13.53;94.82
74224;SHT31;62585;49.706;18.216;2023-08-07T08:38:17;13.50;94.80
74224;SHT31;62585;49.706;18.216;2023-08-07T08:40:46;13.50;95.20
74224;SHT31;62585;49.706;18.216;2023-08-07T08:43:12;13.51;95.14
74224;SHT31;62585;49.706;18.216;2023-08-07T08:45:39;13.41;95.17
74224;SHT31;62585;49.706;18.216;2023-08-07T08:48:07;13.40;95.28
74224;SHT31;62585;49.706;18.216;2023-08-07T08:50:33;13.43;95.20
74224;SHT31;62585;49.706;18.216;2023-08-07T08:53:00;13.54;96.15
74224;SHT31;62585;49.706;18.216;2023-08-07T08:55:28;13.51;95.56
74224;SHT31;62585;49.706;18.216;2023-08-07T08:57:55;13.45;95.16
74224;SHT31;62585;49.706;18.216;2023-08-07T09:00:21;13.54;95.31
74224;SHT31;62585;49.706;18.216;2023-08-07T09:02:49;13.51;94.86
74224;SHT31;62585;49.706;18.216;2023-08-07T09:05:16;13.61;95.27
74224;SHT31;62585;49.706;18.216;2023-08-07T09:07:42;13.61;95.39
74224;SHT31;62585;49.706;18.216;2023-08-07T09:10:09;13.72;95.53
74224;SHT31;62585;49.706;18.216;2023-08-07T09:12:40;13.68;94.75
74224;SHT31;62585;49.706;18.216;2023-08-07T09:15:07;13.66;94.33
74224;SHT31;62585;49.706;18.216;2023-08-07T09:17:39;13.65;94.40
74224;SHT31;62585;49.706;18.216;2023-08-07T09:20:09;13.59;94.51
74224;SHT31;62585;49.706;18.216;2023-08-07T09:22:42;13.55;94.44
74224;SHT31;62585;49.706;18.216;2023-08-07T09:25:08;13.57;94.61
74224;SHT31;62585;49.706;18.216;2023-08-07T09:27:37;13.62;94.51
74224;SHT31;62585;49.706;18.216;2023-08-07T09:30:05;13.53;94.66
74224;SHT31;62585;49.706;18.216;2023-08-07T09:32:33;13.53;95.25
74224;SHT31;62585;49.706;18.216;2023-08-07T09:35:02;13.50;94.05
74224;SHT31;62585;49.706;18.216;2023-08-07T09:37:28;13.58;94.82
74224;SHT31;62585;49.706;18.216;2023-08-07T09:39:54;13.53;94.88
74224;SHT31;62585;49.706;18.216;2023-08-07T09:42:21;13.58;95.30
74224;SHT31;62585;49.706;18.216;2023-08-07T09:44:47;13.62;94.75
74224;SHT31;62585;49.706;18.216;2023-08-07T09:47:15;13.61;95.24
74224;SHT31;62585;49.706;18.216;2023-08-07T09:49:42;13.61;94.86
74224;SHT31;62585;49.706;18.216;2023-08-07T09:52:09;13.64;94.05
74224;SHT31;62585;49.706;18.216;2023-08-07T09:54:36;13.74;94.89
74224;SHT31;62585;49.706;18.216;2023-08-07T09:57:02;13.79;94.57
74224;SHT31;62585;49.706;18.216;2023-08-07T09:59:28;13.81;94.08
74224;SHT31;62585;49.706;18.216;2023-08-07T10:01:55;13.90;94.68
74224;SHT31;62585;49.706;18.216;2023-08-07T10:04:22;14.03;94.29
74224;SHT31;62585;49.706;18.216;2023-08-07T10:06:48;13.98;93.51
74224;SHT31;62585;49.706;18.216;2023-08-07T10:09:14;14.13;93.64
74224;SHT31;62585;49.706;18.216;2023-08-07T10:11:41;14.05;93.43
74224;SHT31;62585;49.706;18.216;2023-08-07T10:14:08;14.09;93.77
74224;SHT31;62585;49.706;18.216;2023-08-07T10:16:34;14.09;93.75
74224;SHT31;62585;49.706;18.216;2023-08-07T10:19:08;14.12;93.67
74224;SHT31;62585;49.706;18.216;2023-08-07T10:21:36;13.93;92.64
74224;SHT31;62585;49.706;18.216;2023-08-07T10:24:05;14.01;93.38
74224;SHT31;62585;49.706;18.216;2023-08-07T10:26:35;13.95;92.75
74224;SHT31;62585;49.706;18.216;2023-08-07T10:29:06;13.96;93.25
74224;SHT31;62585;49.706;18.216;2023-08-07T10:31:35;14.01;92.99
74224;SHT31;62585;49.706;18.216;2023-08-07T10:34:02;14.06;92.85
74224;SHT31;62585;49.706;18.216;2023-08-07T10:36:35;14.12;93.17
74224;SHT31;62585;49.706;18.216;2023-08-07T10:39:15;14.06;92.72
74224;SHT31;62585;49.706;18.216;2023-08-07T10:41:46;14.23;92.81
74224;SHT31;62585;49.706;18.216;2023-08-07T10:44:25;14.23;92.46
74224;SHT31;62585;49.706;18.216;2023-08-07T10:46:53;14.19;92.99
74224;SHT31;62585;49.706;18.216;2023-08-07T10:49:39;14.23;92.62
74224;SHT31;62585;49.706;18.216;2023-08-07T10:52:08;14.23;93.46
74224;SHT31;62585;49.706;18.216;2023-08-07T10:54:45;14.30;93.37
74224;SHT31;62585;49.706;18.216;2023-08-07T10:57:12;14.29;93.63
74224;SHT31;62585;49.706;18.216;2023-08-07T11:02:30;14.17;93.78
74224;SHT31;62585;49.706;18.216;2023-08-07T11:04:56;14.13;94.81
74224;SHT31;62585;49.706;18.216;2023-08-07T11:07:29;14.09;94.86
74224;SHT31;62585;49.706;18.216;2023-08-07T11:09:58;13.95;94.91
74224;SHT31;62585;49.706;18.216;2023-08-07T11:12:25;13.93;94.32
74224;SHT31;62585;49.706;18.216;2023-08-07T11:14:52;14.03;94.95
74224;SHT31;62585;49.706;18.216;2023-08-07T11:17:18;13.99;94.89
74224;SHT31;62585;49.706;18.216;2023-08-07T11:19:47;14.09;94.85
74224;SHT31;62585;49.706;18.216;2023-08-07T11:22:15;13.99;95.19
74224;SHT31;62585;49.706;18.216;2023-08-07T11:24:42;14.03;94.95
74224;SHT31;62585;49.706;18.216;2023-08-07T11:27:07;14.26;95.63
74224;SHT31;62585;49.706;18.216;2023-08-07T11:29:34;14.10;97.02
74224;SHT31;62585;49.706;18.216;2023-08-07T11:31:59;13.93;97.48
74224;SHT31;62585;49.706;18.216;2023-08-07T11:34:25;13.95;97.54
74224;SHT31;62585;49.706;18.216;2023-08-07T11:36:51;14.10;97.82
74224;SHT31;62585;49.706;18.216;2023-08-07T11:39:17;13.96;95.39
74224;SHT31;62585;49.706;18.216;2023-08-07T11:41:45;14.08;95.88
74224;SHT31;62585;49.706;18.216;2023-08-07T11:44:11;14.26;95.57
74224;SHT31;62585;49.706;18.216;2023-08-07T11:46:37;14.01;94.25
74224;SHT31;62585;49.706;18.216;2023-08-07T11:49:03;14.06;93.95
74224;SHT31;62585;49.706;18.216;2023-08-07T11:51:30;13.89;92.52
74224;SHT31;62585;49.706;18.216;2023-08-07T11:53:56;13.74;94.45
74224;SHT31;62585;49.706;18.216;2023-08-07T11:56:24;13.66;93.04
74224;SHT31;62585;49.706;18.216;2023-08-07T11:58:51;13.81;94.80
74224;SHT31;62585;49.706;18.216;2023-08-07T12:01:22;13.62;92.24
74224;SHT31;62585;49.706;18.216;2023-08-07T12:03:56;13.62;94.01
74224;SHT31;62585;49.706;18.216;2023-08-07T12:06:26;13.61;92.86
74224;SHT31;62585;49.706;18.216;2023-08-07T12:08:56;13.59;93.50
74224;SHT31;62585;49.706;18.216;2023-08-07T12:11:22;13.47;93.13
74224;SHT31;62585;49.706;18.216;2023-08-07T12:13:48;13.55;94.97
74224;SHT31;62585;49.706;18.216;2023-08-07T12:16:15;13.59;93.41
74224;SHT31;62585;49.706;18.216;2023-08-07T12:18:45;13.61;93.39
74224;SHT31;62585;49.706;18.216;2023-08-07T12:21:13;13.51;92.38
74224;SHT31;62585;49.706;18.216;2023-08-07T12:23:40;13.71;93.78
74224;SHT31;62585;49.706;18.216;2023-08-07T12:26:06;13.57;91.68
74224;SHT31;62585;49.706;18.216;2023-08-07T12:28:35;13.66;93.22
74224;SHT31;62585;49.706;18.216;2023-08-07T12:31:02;13.68;94.43
74224;SHT31;62585;49.706;18.216;2023-08-07T12:33:31;13.74;94.81
74224;SHT31;62585;49.706;18.216;2023-08-07T12:35:58;13.75;94.02
74224;SHT31;62585;49.706;18.216;2023-08-07T12:38:24;13.83;94.80
74224;SHT31;62585;49.706;18.216;2023-08-07T12:40:50;14.05;95.34
74224;SHT31;62585;49.706;18.216;2023-08-07T12:43:16;14.01;92.87
74224;SHT31;62585;49.706;18.216;2023-08-07T12:45:42;14.16;92.08
74224;SHT31;62585;49.706;18.216;2023-08-07T12:48:08;14.22;92.45
74224;SHT31;62585;49.706;18.216;2023-08-07T12:50:34;14.26;92.10
74224;SHT31;62585;49.706;18.216;2023-08-07T12:53:00;14.26;92.03
74224;SHT31;62585;49.706;18.216;2023-08-07T12:55:27;14.32;92.10
74224;SHT31;62585;49.706;18.216;2023-08-07T12:57:53;14.50;91.31
74224;SHT31;62585;49.706;18.216;2023-08-07T13:00:20;14.50;90.90
74224;SHT31;62585;49.706;18.216;2023-08-07T13:02:48;14.74;89.88
74224;SHT31;62585;49.706;18.216;2023-08-07T13:05:15;14.81;90.50
74224;SHT31;62585;49.706;18.216;2023-08-07T13:07:45;14.85;90.99
74224;SHT31;62585;49.706;18.216;2023-08-07T13:10:13;14.93;88.92
74224;SHT31;62585;49.706;18.216;2023-08-07T13:12:42;15.00;90.67
74224;SHT31;62585;49.706;18.216;2023-08-07T13:15:10;15.13;89.99
74224;SHT31;62585;49.706;18.216;2023-08-07T13:17:39;15.23;89.40
74224;SHT31;62585;49.706;18.216;2023-08-07T13:20:06;15.08;90.31
74224;SHT31;62585;49.706;18.216;2023-08-07T13:22:42;15.19;90.07
74224;SHT31;62585;49.706;18.216;2023-08-07T13:25:10;15.13;89.94
74224;SHT31;62585;49.706;18.216;2023-08-07T13:27:36;15.27;91.81
74224;SHT31;62585;49.706;18.216;2023-08-07T13:30:03;15.27;89.69
74224;SHT31;62585;49.706;18.216;2023-08-07T13:32:29;15.36;90.45
74224;SHT31;62585;49.706;18.216;2023-08-07T13:34:55;15.30;90.44
74224;SHT31;62585;49.706;18.216;2023-08-07T13:37:21;15.25;90.99
74224;SHT31;62585;49.706;18.216;2023-08-07T13:39:47;15.20;90.75
74224;SHT31;62585;49.706;18.216;2023-08-07T13:42:15;15.29;89.73
74224;SHT31;62585;49.706;18.216;2023-08-07T13:44:41;15.43;90.31
74224;SHT31;62585;49.706;18.216;2023-08-07T13:47:07;15.39;89.52
74224;SHT31;62585;49.706;18.216;2023-08-07T13:49:34;15.43;89.96
74224;SHT31;62585;49.706;18.216;2023-08-07T13:51:59;15.37;89.31
74224;SHT31;62585;49.706;18.216;2023-08-07T13:54:25;15.39;90.35
74224;SHT31;62585;49.706;18.216;2023-08-07T13:56:51;15.35;90.18
74224;SHT31;62585;49.706;18.216;2023-08-07T13:59:17;15.36;90.71
74224;SHT31;62585;49.706;18.216;2023-08-07T14:01:42;15.33;91.32
74224;SHT31;62585;49.706;18.216;2023-08-07T14:04:08;15.51;91.20
74224;SHT31;62585;49.706;18.216;2023-08-07T14:06:34;15.43;90.42
74224;SHT31;62585;49.706;18.216;2023-08-07T14:09:00;15.56;91.34
74224;SHT31;62585;49.706;18.216;2023-08-07T14:11:26;15.50;90.37
74224;SHT31;62585;49.706;18.216;2023-08-07T14:13:57;15.50;90.80
74224;SHT31;62585;49.706;18.216;2023-08-07T14:16:23;15.58;90.61
74224;SHT31;62585;49.706;18.216;2023-08-07T14:18:49;15.63;90.58
74224;SHT31;62585;49.706;18.216;2023-08-07T14:21:15;15.58;90.35
74224;SHT31;62585;49.706;18.216;2023-08-07T14:23:41;15.67;89.48
74224;SHT31;62585;49.706;18.216;2023-08-07T14:26:08;15.84;89.01
74224;SHT31;62585;49.706;18.216;2023-08-07T14:28:33;16.00;89.87
74224;SHT31;62585;49.706;18.216;2023-08-07T14:30:59;16.22;89.71
74224;SHT31;62585;49.706;18.216;2023-08-07T14:33:27;16.41;88.39
74224;SHT31;62585;49.706;18.216;2023-08-07T14:35:53;16.70;87.69
74224;SHT31;62585;49.706;18.216;2023-08-07T14:38:19;16.64;87.51
74224;SHT31;62585;49.706;18.216;2023-08-07T14:40:44;16.57;88.22
74224;SHT31;62585;49.706;18.216;2023-08-07T14:43:11;16.28;85.90
74224;SHT31;62585;49.706;18.216;2023-08-07T14:45:36;16.30;87.97
74224;SHT31;62585;49.706;18.216;2023-08-07T14:48:03;16.29;87.57
74224;SHT31;62585;49.706;18.216;2023-08-07T14:50:28;16.29;88.35
74224;SHT31;62585;49.706;18.216;2023-08-07T14:52:54;16.18;86.66
74224;SHT31;62585;49.706;18.216;2023-08-07T14:55:20;16.15;86.54
74224;SHT31;62585;49.706;18.216;2023-08-07T14:57:46;16.21;87.09
74224;SHT31;62585;49.706;18.216;2023-08-07T15:00:12;16.15;86.60
74224;SHT31;62585;49.706;18.216;2023-08-07T15:02:38;16.16;87.99
74224;SHT31;62585;49.706;18.216;2023-08-07T15:05:05;16.09;86.28
74224;SHT31;62585;49.706;18.216;2023-08-07T15:07:31;15.95;85.62
74224;SHT31;62585;49.706;18.216;2023-08-07T15:09:57;15.85;86.72
74224;SHT31;62585;49.706;18.216;2023-08-07T15:12:23;15.77;86.66
74224;SHT31;62585;49.706;18.216;2023-08-07T15:14:48;15.77;87.61
74224;SHT31;62585;49.706;18.216;2023-08-07T15:17:14;15.77;87.92
74224;SHT31;62585;49.706;18.216;2023-08-07T15:19:40;15.71;88.58